Westphalia, Missouri
Current Conditions -  °F | °C
As of 3:53 AM on Thursday 23 Oct 2014 (Local Time) from KJEF Reporting Station
Clear Clear  
Wind Chill: 40°   Ceiling: Unl
Heat Index: 43°   Visibility: 10mi
Dew Point: 39°   Wind: 5mph
Humidity: 86%   Direction: 130°SE
Pressure: 30.18"   Gusts: NA
Location:  38.44°N, 92°W
Report Text: KJEF 230853Z AUTO 13004KT 10SM CLR 06/04 A3018 RMK AO2 SLP209 T00610039 58002
Loading
Personal Weather Stations






























Interactive Weather Map
Tropical Storm Tracking
New forecast layout! Learn more

10-Day Weather Forecast

Advertisements
Track Severe Weather on mobile